createdAt,value
2022-09-20T00:02:00.804Z,12.40
2022-09-20T00:04:29.935Z,12.40
2022-09-20T00:06:58.954Z,12.40
2022-09-20T00:09:27.874Z,12.30
2022-09-20T00:11:58.230Z,12.40
2022-09-20T00:14:27.577Z,12.40
2022-09-20T00:16:56.675Z,12.30
2022-09-20T00:19:25.655Z,12.30
2022-09-20T00:21:54.705Z,12.30
2022-09-20T00:24:23.691Z,12.30
2022-09-20T00:26:52.761Z,12.30
2022-09-20T00:29:23.416Z,12.30
2022-09-20T00:31:52.517Z,12.30
2022-09-20T00:34:39.125Z,12.30
2022-09-20T00:37:08.071Z,12.30
2022-09-20T00:39:37.197Z,12.20
2022-09-20T00:42:06.835Z,12.20
2022-09-20T00:44:56.853Z,12.30
2022-09-20T00:47:37.115Z,12.30
2022-09-20T00:50:25.513Z,12.40
2022-09-20T00:53:00.072Z,12.40
2022-09-20T00:55:30.025Z,12.40
2022-09-20T00:58:01.171Z,12.40
2022-09-20T01:01:09.910Z,12.30
2022-09-20T01:03:42.135Z,12.20
2022-09-20T01:06:15.165Z,12.20
2022-09-20T01:08:48.596Z,12.20
2022-09-20T01:11:17.721Z,12.10
2022-09-20T01:13:46.813Z,12.10
2022-09-20T01:16:18.977Z,12.20
2022-09-20T01:18:50.727Z,12.20
2022-09-20T01:21:21.225Z,12.20
2022-09-20T01:23:57.162Z,12.20
2022-09-20T01:26:47.800Z,12.20
2022-09-20T01:29:38.513Z,12.20
2022-09-20T01:32:14.266Z,12.30
2022-09-20T01:34:48.613Z,12.10
2022-09-20T01:37:26.507Z,12.20
2022-09-20T01:40:05.732Z,12.20
2022-09-20T01:42:40.087Z,12.20
2022-09-20T01:45:20.792Z,12.20
2022-09-20T01:47:59.174Z,12.10
2022-09-20T01:50:36.478Z,12.10
2022-09-20T01:53:39.969Z,12.20
2022-09-20T01:56:56.995Z,12.30
2022-09-20T02:00:05.717Z,12.40
2022-09-20T02:03:47.640Z,12.40
2022-09-20T02:06:46.437Z,12.50
2022-09-20T02:09:46.741Z,12.50
2022-09-20T02:12:36.973Z,12.50
2022-09-20T02:15:19.782Z,12.50
2022-09-20T02:18:00.004Z,12.50
2022-09-20T02:20:45.619Z,12.50
2022-09-20T02:23:26.617Z,12.50
2022-09-20T02:26:20.022Z,12.50
2022-09-20T02:29:02.628Z,12.50
2022-09-20T02:31:54.688Z,12.60
2022-09-20T02:34:55.313Z,12.60
2022-09-20T02:38:07.494Z,12.60
2022-09-20T02:41:19.658Z,12.60
2022-09-20T02:43:58.902Z,12.50
2022-09-20T02:46:31.710Z,12.50
2022-09-20T02:49:08.821Z,12.40
2022-09-20T02:51:42.852Z,12.30
2022-09-20T02:54:27.037Z,12.30
2022-09-20T02:57:01.762Z,12.30
2022-09-20T02:59:40.223Z,12.30
2022-09-20T03:02:20.220Z,12.30
2022-09-20T03:05:07.578Z,12.30
2022-09-20T03:07:51.810Z,12.30
2022-09-20T03:10:33.057Z,12.40
2022-09-20T03:13:24.920Z,12.40
2022-09-20T03:16:06.031Z,12.30
2022-09-20T03:18:44.462Z,12.30
2022-09-20T03:21:30.502Z,12.30
2022-09-20T03:24:11.242Z,12.30
2022-09-20T03:26:54.259Z,12.30
2022-09-20T03:29:39.542Z,12.30
2022-09-20T03:32:33.288Z,12.30
2022-09-20T03:35:23.359Z,12.30
2022-09-20T03:38:16.900Z,12.40
2022-09-20T03:41:33.683Z,12.30
2022-09-20T03:44:19.647Z,12.20
2022-09-20T03:46:52.909Z,12.10
2022-09-20T03:49:54.976Z,12.10
2022-09-20T03:52:54.548Z,12.10
2022-09-20T03:56:00.961Z,12.10
2022-09-20T03:58:48.589Z,12.20
2022-09-20T04:01:45.193Z,12.20
2022-09-20T04:04:24.522Z,12.20
2022-09-20T04:07:14.501Z,12.20
2022-09-20T04:10:13.733Z,12.20
2022-09-20T04:13:00.894Z,12.30
2022-09-20T04:15:40.381Z,12.30
2022-09-20T04:18:34.431Z,12.30
2022-09-20T04:21:11.426Z,12.30
2022-09-20T04:23:51.059Z,12.30
2022-09-20T04:26:28.259Z,12.40
2022-09-20T04:29:11.361Z,12.30
2022-09-20T04:31:50.909Z,12.30
2022-09-20T04:34:56.007Z,12.30
2022-09-20T04:37:33.235Z,12.40
2022-09-20T04:40:21.609Z,12.50
2022-09-20T04:43:33.043Z,12.50
2022-09-20T04:46:35.573Z,12.50
2022-09-20T04:49:49.790Z,12.50
2022-09-20T04:53:18.952Z,12.50
2022-09-20T04:55:53.008Z,12.50
2022-09-20T04:58:46.971Z,12.50
2022-09-20T05:02:06.371Z,12.50
2022-09-20T05:05:35.762Z,12.40
2022-09-20T05:08:51.761Z,12.40
2022-09-20T05:11:53.592Z,12.00
2022-09-20T05:15:21.021Z,12.10
2022-09-20T05:18:15.347Z,12.00
2022-09-20T05:21:09.521Z,12.10
2022-09-20T05:24:13.226Z,12.00
2022-09-20T05:26:57.931Z,12.10
2022-09-20T05:29:42.908Z,12.10
2022-09-20T05:32:23.726Z,12.20
2022-09-20T05:35:00.245Z,12.30
2022-09-20T05:37:42.071Z,12.40
2022-09-20T05:40:28.985Z,12.40
2022-09-20T05:43:11.196Z,12.50
2022-09-20T05:46:04.204Z,12.70
2022-09-20T05:48:41.648Z,12.90
2022-09-20T05:51:34.888Z,13.20
2022-09-20T05:55:02.419Z,13.50
2022-09-20T05:57:48.861Z,13.70
2022-09-20T06:00:21.726Z,14.00
2022-09-20T06:02:59.584Z,14.20
2022-09-20T06:05:43.656Z,14.30
2022-09-20T06:08:45.127Z,14.40
2022-09-20T06:11:46.740Z,14.40
2022-09-20T06:14:32.790Z,14.40
2022-09-20T06:17:16.230Z,14.20
2022-09-20T06:19:52.801Z,14.00
2022-09-20T06:22:28.892Z,13.90
2022-09-20T06:25:04.624Z,13.90
2022-09-20T06:27:39.369Z,13.80
2022-09-20T06:30:18.700Z,13.80
2022-09-20T06:32:59.401Z,13.80
2022-09-20T06:35:37.042Z,13.80
2022-09-20T06:39:01.960Z,13.90
2022-09-20T06:41:34.070Z,13.90
2022-09-20T06:44:07.075Z,13.90
2022-09-20T06:46:38.625Z,14.00
2022-09-20T06:49:09.641Z,14.00
2022-09-20T06:51:40.443Z,14.00
2022-09-20T06:54:17.970Z,14.10
2022-09-20T06:56:48.156Z,14.20
2022-09-20T06:59:17.145Z,14.10
2022-09-20T07:01:47.604Z,14.10
2022-09-20T07:04:16.721Z,14.10
2022-09-20T07:06:45.734Z,14.10
2022-09-20T07:09:14.811Z,13.80
2022-09-20T07:11:45.025Z,13.80
2022-09-20T07:14:15.542Z,13.60
2022-09-20T07:16:44.575Z,13.60
2022-09-20T07:19:15.046Z,13.70
2022-09-20T07:21:44.395Z,13.60
2022-09-20T07:24:15.055Z,13.50
2022-09-20T07:26:56.815Z,13.40
2022-09-20T07:29:27.254Z,13.40
2022-09-20T07:31:58.646Z,13.50
2022-09-20T07:34:29.488Z,13.50
2022-09-20T07:36:59.650Z,13.50
2022-09-20T07:39:28.724Z,13.50
2022-09-20T07:41:57.810Z,13.60
2022-09-20T07:44:27.920Z,13.60
2022-09-20T07:46:59.053Z,13.70
2022-09-20T07:49:30.906Z,13.70
2022-09-20T07:52:00.290Z,13.80
2022-09-20T07:54:30.134Z,13.70
2022-09-20T07:56:59.202Z,13.60
2022-09-20T07:59:28.184Z,13.50
2022-09-20T08:01:58.864Z,13.70
2022-09-20T08:04:29.626Z,13.70
2022-09-20T08:06:58.787Z,13.70
2022-09-20T08:09:28.108Z,13.60
2022-09-20T08:11:57.668Z,13.40
2022-09-20T08:14:27.314Z,13.40
2022-09-20T08:17:00.209Z,13.50
2022-09-20T08:19:30.734Z,13.50
2022-09-20T08:21:59.740Z,13.60
2022-09-20T08:24:28.785Z,13.60
2022-09-20T08:26:57.802Z,13.70
2022-09-20T08:29:27.051Z,13.50
2022-09-20T08:31:58.343Z,13.70
2022-09-20T08:34:27.353Z,13.70
2022-09-20T08:36:57.755Z,13.80
2022-09-20T08:42:33.917Z,13.80
2022-09-20T08:45:22.329Z,13.70
2022-09-20T08:47:58.909Z,13.80
2022-09-20T08:50:29.064Z,13.90
2022-09-20T08:53:04.966Z,13.80
2022-09-20T08:55:37.392Z,13.80
2022-09-20T08:58:09.499Z,13.70
2022-09-20T09:00:40.351Z,13.80
2022-09-20T09:03:16.834Z,13.90
2022-09-20T09:05:48.613Z,13.90
2022-09-20T09:08:23.682Z,13.90
2022-09-20T09:10:56.318Z,13.90
2022-09-20T09:13:33.282Z,13.90
2022-09-20T09:16:07.566Z,14.00
2022-09-20T09:18:41.402Z,13.90
2022-09-20T09:21:19.317Z,13.80
2022-09-20T09:23:54.351Z,13.70
2022-09-20T09:26:25.966Z,13.40
2022-09-20T09:29:18.539Z,13.80
2022-09-20T09:31:49.934Z,13.70
2022-09-20T09:34:31.376Z,13.80
2022-09-20T09:37:00.810Z,13.90
2022-09-20T09:39:35.450Z,13.90
2022-09-20T09:42:21.964Z,14.10
2022-09-20T09:44:51.076Z,14.20
2022-09-20T09:47:28.586Z,14.20
2022-09-20T09:50:02.604Z,14.20
2022-09-20T09:52:35.417Z,14.30
2022-09-20T09:55:07.473Z,14.20
2022-09-20T09:57:53.920Z,14.40
2022-09-20T10:00:24.760Z,14.30
2022-09-20T10:03:30.055Z,14.30
2022-09-20T10:06:16.623Z,14.50
2022-09-20T10:09:13.050Z,14.60
2022-09-20T10:12:00.638Z,14.50
2022-09-20T10:14:45.602Z,14.70
2022-09-20T10:17:39.081Z,14.80
2022-09-20T10:20:28.227Z,14.70
2022-09-20T10:23:39.864Z,14.70
2022-09-20T10:26:23.412Z,14.60
2022-09-20T10:29:08.379Z,14.80
2022-09-20T10:31:52.307Z,14.90
2022-09-20T10:34:49.130Z,14.80
2022-09-20T10:37:29.021Z,14.80
2022-09-20T10:40:16.882Z,14.90
2022-09-20T10:43:07.988Z,15.10
2022-09-20T10:48:43.650Z,15.30
2022-09-20T10:51:19.722Z,15.40
2022-09-20T10:53:57.649Z,15.40
2022-09-20T10:56:32.353Z,15.40
2022-09-20T10:59:34.079Z,15.50
2022-09-20T11:02:34.102Z,15.40
2022-09-20T11:05:26.623Z,15.20
2022-09-20T11:08:05.726Z,15.30
2022-09-20T11:10:39.105Z,15.20
2022-09-20T11:13:20.745Z,15.30
2022-09-20T11:15:59.536Z,15.40
2022-09-20T11:18:40.514Z,15.50
2022-09-20T11:21:19.227Z,15.60
2022-09-20T11:23:57.150Z,15.60
2022-09-20T11:26:32.296Z,15.70
2022-09-20T11:29:10.166Z,15.50
2022-09-20T11:31:43.252Z,15.50
2022-09-20T11:34:22.276Z,15.30
2022-09-20T11:36:58.932Z,15.40
2022-09-20T11:39:36.440Z,15.60
2022-09-20T11:42:08.196Z,15.80
2022-09-20T11:44:41.841Z,15.90
2022-09-20T11:47:42.897Z,15.90
2022-09-20T11:50:46.242Z,15.80
2022-09-20T11:53:49.455Z,15.80
2022-09-20T11:56:21.190Z,15.70
2022-09-20T11:58:53.578Z,15.60
2022-09-20T12:01:29.986Z,15.60
2022-09-20T12:04:28.224Z,15.90
2022-09-20T12:07:08.678Z,15.90
2022-09-20T12:09:42.437Z,16.00
2022-09-20T12:12:21.299Z,15.80
2022-09-20T12:14:56.750Z,15.70
2022-09-20T12:18:15.447Z,15.70
2022-09-20T12:21:15.003Z,15.70
2022-09-20T12:24:18.954Z,15.70
2022-09-20T12:26:56.208Z,15.70
2022-09-20T12:30:17.357Z,15.80
2022-09-20T12:32:59.232Z,15.80
2022-09-20T12:36:19.413Z,16.00
2022-09-20T12:39:06.496Z,16.30
2022-09-20T12:41:52.867Z,16.10
2022-09-20T12:44:33.567Z,16.20
2022-09-20T12:47:06.428Z,16.20
2022-09-20T12:49:59.841Z,16.40
2022-09-20T12:53:00.724Z,16.40
2022-09-20T12:55:46.769Z,16.40
2022-09-20T12:58:34.871Z,16.20
2022-09-20T13:01:32.854Z,16.20
2022-09-20T13:04:42.584Z,16.30
2022-09-20T13:07:44.270Z,16.40
2022-09-20T13:10:33.325Z,16.50
2022-09-20T13:13:14.409Z,16.50
2022-09-20T13:15:51.690Z,16.50
2022-09-20T13:18:22.318Z,16.60
2022-09-20T13:20:52.593Z,16.80
2022-09-20T13:23:27.207Z,16.50
2022-09-20T13:25:59.172Z,16.40
2022-09-20T13:28:42.442Z,16.30
2022-09-20T13:31:30.295Z,16.30
2022-09-20T13:34:20.835Z,16.10
2022-09-20T13:36:56.218Z,16.30
2022-09-20T13:39:30.759Z,16.40
2022-09-20T13:42:16.318Z,16.40
2022-09-20T13:44:47.591Z,16.10
2022-09-20T13:47:26.122Z,16.00
2022-09-20T13:50:01.138Z,16.00
2022-09-20T13:52:32.882Z,16.00
2022-09-20T13:55:19.655Z,16.00
2022-09-20T13:57:49.047Z,15.90
2022-09-20T14:00:19.989Z,15.60
2022-09-20T14:02:52.292Z,15.40
2022-09-20T14:05:23.674Z,15.20
2022-09-20T14:07:53.068Z,15.10
2022-09-20T14:10:32.037Z,15.10
2022-09-20T14:13:03.149Z,15.10
2022-09-20T14:15:38.897Z,15.10
2022-09-20T14:18:12.699Z,15.10
2022-09-20T14:20:43.413Z,15.00
2022-09-20T14:23:23.564Z,14.90
2022-09-20T14:26:18.609Z,15.00
2022-09-20T14:28:48.327Z,15.00
2022-09-20T14:31:36.380Z,14.80
2022-09-20T14:34:06.460Z,14.90
2022-09-20T14:36:35.634Z,15.30
2022-09-20T14:39:06.416Z,15.00
2022-09-20T14:41:39.311Z,15.20
2022-09-20T14:44:24.701Z,15.20
2022-09-20T14:46:55.242Z,15.20
2022-09-20T14:49:33.871Z,15.20
2022-09-20T14:52:35.971Z,15.30
2022-09-20T14:55:21.378Z,15.40
2022-09-20T14:57:50.430Z,15.40
2022-09-20T15:00:20.683Z,15.30
2022-09-20T15:02:52.018Z,15.40
2022-09-20T15:05:26.096Z,15.50
2022-09-20T15:07:56.475Z,15.60
2022-09-20T15:10:25.896Z,15.70
2022-09-20T15:12:54.885Z,15.80
2022-09-20T15:15:23.970Z,15.90
2022-09-20T15:17:54.370Z,15.90
2022-09-20T15:20:24.770Z,16.00
2022-09-20T15:22:54.150Z,16.00
2022-09-20T15:25:23.547Z,16.00
2022-09-20T15:27:52.771Z,16.00
2022-09-20T15:30:22.361Z,16.10
2022-09-20T15:32:51.870Z,16.00
2022-09-20T15:35:22.217Z,16.00
2022-09-20T15:37:51.403Z,15.70
2022-09-20T15:40:20.721Z,15.80
2022-09-20T15:42:52.466Z,15.70
2022-09-20T15:45:23.419Z,15.50
2022-09-20T15:47:55.082Z,15.40
2022-09-20T15:50:26.284Z,15.50
2022-09-20T15:52:59.853Z,15.50
2022-09-20T15:55:29.238Z,15.40
2022-09-20T15:57:58.365Z,15.20
2022-09-20T16:00:27.486Z,15.10
2022-09-20T16:02:56.610Z,15.30
2022-09-20T16:05:26.935Z,15.30
2022-09-20T16:07:55.914Z,15.20
2022-09-20T16:10:24.922Z,15.20
2022-09-20T16:12:53.936Z,15.20
2022-09-20T16:15:22.916Z,15.10
2022-09-20T16:18:10.259Z,15.10
2022-09-20T16:20:41.918Z,15.20
2022-09-20T16:23:11.014Z,15.20
2022-09-20T16:25:40.087Z,15.30
2022-09-20T16:28:09.227Z,15.40
2022-09-20T16:30:38.184Z,15.20
2022-09-20T16:33:09.446Z,15.20
2022-09-20T16:35:39.786Z,15.20
2022-09-20T16:38:12.917Z,15.10
2022-09-20T16:40:42.010Z,15.10
2022-09-20T16:43:11.279Z,15.20
2022-09-20T16:45:40.309Z,15.20
2022-09-20T16:48:09.764Z,15.20
2022-09-20T16:50:40.237Z,15.20
2022-09-20T16:53:09.204Z,15.20
2022-09-20T16:55:38.595Z,15.30
2022-09-20T16:58:09.067Z,15.40
2022-09-20T17:00:38.356Z,15.30
2022-09-20T17:03:08.212Z,15.30
2022-09-20T17:05:37.290Z,15.30
2022-09-20T17:08:08.559Z,15.30
2022-09-20T17:10:37.823Z,15.40
2022-09-20T17:13:07.590Z,15.40
2022-09-20T17:15:37.949Z,15.40
2022-09-20T17:18:08.801Z,15.40
2022-09-20T17:20:40.669Z,15.40
2022-09-20T17:23:10.994Z,15.40
2022-09-20T17:25:43.880Z,15.30
2022-09-20T17:28:13.635Z,15.30
2022-09-20T17:30:42.656Z,15.20
2022-09-20T17:33:11.620Z,15.20
2022-09-20T17:35:40.586Z,15.10
2022-09-20T17:38:11.922Z,15.10
2022-09-20T17:40:40.858Z,15.20
2022-09-20T17:43:12.327Z,15.00
2022-09-20T17:45:41.377Z,15.10
2022-09-20T17:48:10.696Z,15.00
2022-09-20T17:50:39.721Z,14.90
2022-09-20T17:53:12.617Z,15.10
2022-09-20T17:55:43.703Z,15.10
2022-09-20T17:58:12.695Z,15.20
2022-09-20T18:00:41.741Z,15.20
2022-09-20T18:03:10.786Z,15.20
2022-09-20T18:05:39.749Z,15.20
2022-09-20T18:08:12.819Z,15.20
2022-09-20T18:10:41.934Z,15.10
2022-09-20T18:13:13.463Z,15.00
2022-09-20T18:15:45.667Z,14.90
2022-09-20T18:18:14.644Z,14.80
2022-09-20T18:20:43.689Z,14.70
2022-09-20T18:23:13.997Z,14.60
2022-09-20T18:26:00.747Z,14.50
2022-09-20T18:28:29.882Z,14.50
2022-09-20T18:31:03.179Z,14.50
2022-09-20T18:33:33.285Z,14.40
2022-09-20T18:36:04.074Z,14.40
2022-09-20T18:38:34.398Z,14.30
2022-09-20T18:41:04.926Z,14.20
2022-09-20T18:43:35.472Z,14.20
2022-09-20T18:46:04.497Z,14.10
2022-09-20T18:48:34.453Z,14.10
2022-09-20T18:51:05.991Z,14.00
2022-09-20T18:53:38.706Z,13.90
2022-09-20T18:56:10.196Z,13.90
2022-09-20T18:58:39.981Z,13.90
2022-09-20T19:01:33.663Z,13.80
2022-09-20T19:04:21.421Z,13.80
2022-09-20T19:06:56.829Z,13.70
2022-09-20T19:09:37.310Z,13.70
2022-09-20T19:12:16.858Z,13.60
2022-09-20T19:15:14.547Z,13.60
2022-09-20T19:18:20.436Z,13.50
2022-09-20T19:21:01.708Z,13.50
2022-09-20T19:23:52.262Z,13.50
2022-09-20T19:26:26.609Z,13.40
2022-09-20T19:28:59.425Z,13.40
2022-09-20T19:31:31.575Z,13.40
2022-09-20T19:34:04.704Z,13.40
2022-09-20T19:36:44.567Z,13.40
2022-09-20T19:39:20.697Z,13.40
2022-09-20T19:42:03.910Z,13.30
2022-09-20T19:44:39.794Z,13.40
2022-09-20T19:47:22.830Z,13.30
2022-09-20T19:49:57.306Z,13.30
2022-09-20T19:52:27.935Z,13.30
2022-09-20T19:54:58.026Z,13.20
2022-09-20T19:57:38.497Z,13.20
2022-09-20T20:00:11.493Z,13.10
2022-09-20T20:02:48.838Z,13.10
2022-09-20T20:05:25.561Z,13.00
2022-09-20T20:08:13.054Z,13.00
2022-09-20T20:10:54.332Z,12.90
2022-09-20T20:13:52.556Z,12.90
2022-09-20T20:16:30.919Z,12.90
2022-09-20T20:20:01.387Z,12.80
2022-09-20T20:23:33.572Z,12.80
2022-09-20T20:26:07.575Z,12.70
2022-09-20T20:28:47.380Z,12.70
2022-09-20T20:31:19.843Z,12.70
2022-09-20T20:33:54.708Z,12.80
2022-09-20T20:36:26.092Z,12.70
2022-09-20T20:38:58.422Z,12.70
2022-09-20T20:41:31.817Z,12.60
2022-09-20T20:44:05.137Z,12.60
2022-09-20T20:46:35.915Z,12.60
2022-09-20T20:49:05.605Z,12.50
2022-09-20T20:51:34.562Z,12.60
2022-09-20T20:54:05.179Z,12.60
2022-09-20T20:56:34.687Z,12.50
2022-09-20T20:59:07.065Z,12.50
2022-09-20T21:01:39.513Z,12.70
2022-09-20T21:04:09.188Z,12.60
2022-09-20T21:06:40.563Z,12.40
2022-09-20T21:09:11.228Z,12.40
2022-09-20T21:11:43.336Z,12.40
2022-09-20T21:14:13.747Z,12.30
2022-09-20T21:16:44.220Z,12.20
2022-09-20T21:19:16.400Z,12.20
2022-09-20T21:21:47.821Z,12.10
2022-09-20T21:24:18.281Z,12.10
2022-09-20T21:26:48.455Z,12.10
2022-09-20T21:29:20.340Z,12.10
2022-09-20T21:31:49.467Z,12.10
2022-09-20T21:34:18.399Z,12.10
2022-09-20T21:36:47.407Z,12.10
2022-09-20T21:39:16.339Z,12.00
2022-09-20T21:41:48.685Z,11.80
2022-09-20T21:44:20.414Z,11.80
2022-09-20T21:46:49.987Z,11.80
2022-09-20T21:49:18.922Z,11.80
2022-09-20T21:51:50.051Z,11.70
2022-09-20T21:54:19.025Z,11.70
2022-09-20T21:56:48.990Z,11.60
2022-09-20T21:59:20.399Z,11.60
2022-09-20T22:01:50.335Z,11.60
2022-09-20T22:04:19.396Z,11.50
2022-09-20T22:06:48.503Z,11.50
2022-09-20T22:09:19.199Z,11.50
2022-09-20T22:11:50.006Z,11.50
2022-09-20T22:14:20.650Z,11.50
2022-09-20T22:16:51.150Z,11.60
2022-09-20T22:19:20.856Z,11.60
2022-09-20T22:21:51.756Z,11.60
2022-09-20T22:24:20.857Z,11.60
2022-09-20T22:26:51.597Z,11.60
2022-09-20T22:29:22.201Z,11.60
2022-09-20T22:31:51.465Z,11.60
2022-09-20T22:34:23.601Z,11.60
2022-09-20T22:36:53.816Z,11.50
2022-09-20T22:39:22.834Z,11.40
2022-09-20T22:41:52.533Z,11.40
2022-09-20T22:44:22.836Z,11.30
2022-09-20T22:46:51.994Z,11.30
2022-09-20T22:49:21.196Z,11.20
2022-09-20T22:51:50.138Z,11.30
2022-09-20T22:54:19.069Z,11.30
2022-09-20T22:56:48.037Z,11.20
2022-09-20T22:59:17.180Z,11.10
2022-09-20T23:01:49.247Z,11.10
2022-09-20T23:04:22.214Z,11.10
2022-09-20T23:06:54.793Z,11.00
2022-09-20T23:09:27.530Z,10.90
2022-09-20T23:11:56.966Z,10.80
2022-09-20T23:14:25.941Z,10.80
2022-09-20T23:16:56.301Z,10.80
2022-09-20T23:19:25.619Z,10.80
2022-09-20T23:21:54.545Z,10.80
2022-09-20T23:24:23.545Z,10.80
2022-09-20T23:26:52.842Z,10.80
2022-09-20T23:29:22.473Z,10.80
2022-09-20T23:31:51.528Z,10.70
2022-09-20T23:34:21.790Z,10.70
2022-09-20T23:36:50.749Z,10.70
2022-09-20T23:39:19.753Z,10.70
2022-09-20T23:41:51.290Z,10.70
2022-09-20T23:44:20.593Z,10.70
2022-09-20T23:46:49.669Z,10.70
2022-09-20T23:49:18.925Z,10.60
2022-09-20T23:51:49.168Z,10.60
2022-09-20T23:54:18.236Z,10.50
2022-09-20T23:56:47.577Z,10.50
2022-09-20T23:59:16.507Z,10.50
